sensor_id;sensor_type;location;lat;lon;timestamp;P1;durP1;ratioP1;P2;durP2;ratioP2
29370;SDS011;16357;52.188;7.838;2023-03-15T00:01:10;7.13;;;1.98;;
29370;SDS011;16357;52.188;7.838;2023-03-15T00:03:41;9.18;;;2.33;;
29370;SDS011;16357;52.188;7.838;2023-03-15T00:06:09;8.20;;;2.42;;
29370;SDS011;16357;52.188;7.838;2023-03-15T00:08:36;7.82;;;2.15;;
29370;SDS011;16357;52.188;7.838;2023-03-15T00:11:03;11.52;;;2.40;;
29370;SDS011;16357;52.188;7.838;2023-03-15T00:13:30;6.75;;;2.17;;
29370;SDS011;16357;52.188;7.838;2023-03-15T00:15:58;8.70;;;2.78;;
29370;SDS011;16357;52.188;7.838;2023-03-15T00:18:26;12.18;;;2.72;;
29370;SDS011;16357;52.188;7.838;2023-03-15T00:20:53;7.28;;;2.10;;
29370;SDS011;16357;52.188;7.838;2023-03-15T00:23:20;10.18;;;2.40;;
29370;SDS011;16357;52.188;7.838;2023-03-15T00:25:47;9.85;;;2.72;;
29370;SDS011;16357;52.188;7.838;2023-03-15T00:28:14;9.23;;;2.33;;
29370;SDS011;16357;52.188;7.838;2023-03-15T00:30:41;11.38;;;2.47;;
29370;SDS011;16357;52.188;7.838;2023-03-15T00:33:09;7.15;;;2.83;;
29370;SDS011;16357;52.188;7.838;2023-03-15T00:35:39;8.02;;;2.63;;
29370;SDS011;16357;52.188;7.838;2023-03-15T00:38:07;7.18;;;2.00;;
29370;SDS011;16357;52.188;7.838;2023-03-15T00:40:35;8.18;;;2.53;;
29370;SDS011;16357;52.188;7.838;2023-03-15T00:43:02;12.30;;;2.50;;
29370;SDS011;16357;52.188;7.838;2023-03-15T00:45:29;10.10;;;2.65;;
29370;SDS011;16357;52.188;7.838;2023-03-15T00:47:55;10.20;;;2.13;;
29370;SDS011;16357;52.188;7.838;2023-03-15T00:50:22;8.82;;;2.55;;
29370;SDS011;16357;52.188;7.838;2023-03-15T00:52:50;10.98;;;2.10;;
29370;SDS011;16357;52.188;7.838;2023-03-15T00:55:17;10.10;;;2.58;;
29370;SDS011;16357;52.188;7.838;2023-03-15T00:57:45;8.68;;;2.80;;
29370;SDS011;16357;52.188;7.838;2023-03-15T01:00:13;6.68;;;2.30;;
29370;SDS011;16357;52.188;7.838;2023-03-15T01:02:42;7.95;;;2.67;;
29370;SDS011;16357;52.188;7.838;2023-03-15T01:05:10;7.57;;;2.20;;
29370;SDS011;16357;52.188;7.838;2023-03-15T01:07:36;6.90;;;1.92;;
29370;SDS011;16357;52.188;7.838;2023-03-15T01:10:03;12.88;;;2.35;;
29370;SDS011;16357;52.188;7.838;2023-03-15T01:12:32;5.25;;;1.60;;
29370;SDS011;16357;52.188;7.838;2023-03-15T01:14:59;14.02;;;2.78;;
29370;SDS011;16357;52.188;7.838;2023-03-15T01:17:27;6.28;;;2.08;;
29370;SDS011;16357;52.188;7.838;2023-03-15T01:19:54;3.25;;;1.52;;
29370;SDS011;16357;52.188;7.838;2023-03-15T01:22:21;4.53;;;1.90;;
29370;SDS011;16357;52.188;7.838;2023-03-15T01:24:47;7.20;;;2.60;;
29370;SDS011;16357;52.188;7.838;2023-03-15T01:27:14;3.60;;;1.90;;
29370;SDS011;16357;52.188;7.838;2023-03-15T01:29:40;4.13;;;1.85;;
29370;SDS011;16357;52.188;7.838;2023-03-15T01:32:07;3.97;;;2.10;;
29370;SDS011;16357;52.188;7.838;2023-03-15T01:34:34;6.50;;;2.38;;
29370;SDS011;16357;52.188;7.838;2023-03-15T01:37:01;6.68;;;2.45;;
29370;SDS011;16357;52.188;7.838;2023-03-15T01:39:30;2.42;;;1.65;;
29370;SDS011;16357;52.188;7.838;2023-03-15T01:41:57;4.97;;;2.28;;
29370;SDS011;16357;52.188;7.838;2023-03-15T01:44:23;3.80;;;1.73;;
29370;SDS011;16357;52.188;7.838;2023-03-15T01:47:14;6.00;;;2.00;;
29370;SDS011;16357;52.188;7.838;2023-03-15T01:49:41;6.38;;;2.30;;
29370;SDS011;16357;52.188;7.838;2023-03-15T01:52:11;5.15;;;1.90;;
29370;SDS011;16357;52.188;7.838;2023-03-15T01:54:49;5.05;;;2.17;;
29370;SDS011;16357;52.188;7.838;2023-03-15T01:57:21;4.07;;;2.08;;
29370;SDS011;16357;52.188;7.838;2023-03-15T01:59:55;4.82;;;2.40;;
29370;SDS011;16357;52.188;7.838;2023-03-15T02:02:27;7.07;;;2.28;;
29370;SDS011;16357;52.188;7.838;2023-03-15T02:05:05;3.58;;;2.13;;
29370;SDS011;16357;52.188;7.838;2023-03-15T02:07:37;2.58;;;1.77;;
29370;SDS011;16357;52.188;7.838;2023-03-15T02:10:16;5.43;;;2.10;;
29370;SDS011;16357;52.188;7.838;2023-03-15T02:12:47;3.63;;;2.25;;
29370;SDS011;16357;52.188;7.838;2023-03-15T02:15:16;3.30;;;2.13;;
29370;SDS011;16357;52.188;7.838;2023-03-15T02:17:44;3.47;;;1.90;;
29370;SDS011;16357;52.188;7.838;2023-03-15T02:23:13;6.28;;;2.40;;
29370;SDS011;16357;52.188;7.838;2023-03-15T02:25:51;2.70;;;2.08;;
29370;SDS011;16357;52.188;7.838;2023-03-15T02:28:19;3.53;;;2.17;;
29370;SDS011;16357;52.188;7.838;2023-03-15T02:30:46;2.67;;;1.92;;
29370;SDS011;16357;52.188;7.838;2023-03-15T02:33:16;2.55;;;2.00;;
29370;SDS011;16357;52.188;7.838;2023-03-15T02:35:47;2.65;;;1.90;;
29370;SDS011;16357;52.188;7.838;2023-03-15T02:38:14;2.55;;;2.00;;
29370;SDS011;16357;52.188;7.838;2023-03-15T02:40:40;2.80;;;2.05;;
29370;SDS011;16357;52.188;7.838;2023-03-15T02:43:13;2.92;;;2.25;;
29370;SDS011;16357;52.188;7.838;2023-03-15T02:45:45;2.70;;;2.03;;
29370;SDS011;16357;52.188;7.838;2023-03-15T02:48:13;4.05;;;2.22;;
29370;SDS011;16357;52.188;7.838;2023-03-15T02:50:39;3.47;;;2.30;;
29370;SDS011;16357;52.188;7.838;2023-03-15T02:53:06;3.63;;;2.25;;
29370;SDS011;16357;52.188;7.838;2023-03-15T02:55:33;3.20;;;2.20;;
29370;SDS011;16357;52.188;7.838;2023-03-15T02:58:00;3.05;;;2.20;;
29370;SDS011;16357;52.188;7.838;2023-03-15T03:00:27;2.47;;;2.28;;
29370;SDS011;16357;52.188;7.838;2023-03-15T03:02:54;2.83;;;2.17;;
29370;SDS011;16357;52.188;7.838;2023-03-15T03:05:20;3.85;;;2.55;;
29370;SDS011;16357;52.188;7.838;2023-03-15T03:07:47;3.80;;;2.50;;
29370;SDS011;16357;52.188;7.838;2023-03-15T03:10:16;3.90;;;2.45;;
29370;SDS011;16357;52.188;7.838;2023-03-15T03:12:44;4.22;;;2.90;;
29370;SDS011;16357;52.188;7.838;2023-03-15T03:15:12;3.70;;;2.70;;
29370;SDS011;16357;52.188;7.838;2023-03-15T03:17:38;3.42;;;2.78;;
29370;SDS011;16357;52.188;7.838;2023-03-15T03:20:05;3.50;;;2.65;;
29370;SDS011;16357;52.188;7.838;2023-03-15T03:22:33;3.33;;;2.63;;
29370;SDS011;16357;52.188;7.838;2023-03-15T03:25:00;3.88;;;3.05;;
29370;SDS011;16357;52.188;7.838;2023-03-15T03:27:28;5.50;;;2.97;;
29370;SDS011;16357;52.188;7.838;2023-03-15T03:29:54;3.10;;;2.80;;
29370;SDS011;16357;52.188;7.838;2023-03-15T03:32:21;5.85;;;3.22;;
29370;SDS011;16357;52.188;7.838;2023-03-15T03:34:48;4.20;;;2.58;;
29370;SDS011;16357;52.188;7.838;2023-03-15T03:37:17;4.57;;;3.28;;
29370;SDS011;16357;52.188;7.838;2023-03-15T03:39:44;5.20;;;3.17;;
29370;SDS011;16357;52.188;7.838;2023-03-15T03:42:11;4.00;;;3.13;;
29370;SDS011;16357;52.188;7.838;2023-03-15T03:44:39;5.30;;;3.20;;
29370;SDS011;16357;52.188;7.838;2023-03-15T03:47:06;6.28;;;3.55;;
29370;SDS011;16357;52.188;7.838;2023-03-15T03:49:33;3.90;;;3.25;;
29370;SDS011;16357;52.188;7.838;2023-03-15T03:52:00;5.20;;;3.75;;
29370;SDS011;16357;52.188;7.838;2023-03-15T03:54:27;4.30;;;3.83;;
29370;SDS011;16357;52.188;7.838;2023-03-15T03:56:53;5.90;;;4.00;;
29370;SDS011;16357;52.188;7.838;2023-03-15T03:59:20;7.15;;;3.83;;
29370;SDS011;16357;52.188;7.838;2023-03-15T04:01:46;6.15;;;3.92;;
29370;SDS011;16357;52.188;7.838;2023-03-15T04:04:13;6.90;;;4.15;;
29370;SDS011;16357;52.188;7.838;2023-03-15T04:06:40;7.82;;;4.10;;
29370;SDS011;16357;52.188;7.838;2023-03-15T04:09:11;4.82;;;3.63;;
29370;SDS011;16357;52.188;7.838;2023-03-15T04:11:39;5.18;;;3.88;;
29370;SDS011;16357;52.188;7.838;2023-03-15T04:14:08;8.20;;;4.30;;
29370;SDS011;16357;52.188;7.838;2023-03-15T04:16:35;5.13;;;3.67;;
29370;SDS011;16357;52.188;7.838;2023-03-15T04:19:02;6.97;;;4.63;;
29370;SDS011;16357;52.188;7.838;2023-03-15T04:21:29;5.45;;;3.47;;
29370;SDS011;16357;52.188;7.838;2023-03-15T04:24:02;8.20;;;4.10;;
29370;SDS011;16357;52.188;7.838;2023-03-15T04:26:28;6.70;;;4.03;;
29370;SDS011;16357;52.188;7.838;2023-03-15T04:28:55;5.55;;;3.85;;
29370;SDS011;16357;52.188;7.838;2023-03-15T04:31:23;7.00;;;4.25;;
29370;SDS011;16357;52.188;7.838;2023-03-15T04:33:52;6.03;;;4.10;;
29370;SDS011;16357;52.188;7.838;2023-03-15T04:36:20;7.70;;;4.00;;
29370;SDS011;16357;52.188;7.838;2023-03-15T04:38:49;5.35;;;3.70;;
29370;SDS011;16357;52.188;7.838;2023-03-15T04:41:16;5.05;;;3.58;;
29370;SDS011;16357;52.188;7.838;2023-03-15T04:43:43;4.95;;;3.80;;
29370;SDS011;16357;52.188;7.838;2023-03-15T04:46:10;5.82;;;3.58;;
29370;SDS011;16357;52.188;7.838;2023-03-15T04:48:36;5.72;;;4.00;;
29370;SDS011;16357;52.188;7.838;2023-03-15T04:51:03;5.50;;;3.38;;
29370;SDS011;16357;52.188;7.838;2023-03-15T04:53:29;6.57;;;3.85;;
29370;SDS011;16357;52.188;7.838;2023-03-15T04:55:56;8.27;;;3.63;;
29370;SDS011;16357;52.188;7.838;2023-03-15T04:58:22;6.70;;;3.60;;
29370;SDS011;16357;52.188;7.838;2023-03-15T05:00:49;4.63;;;3.30;;
29370;SDS011;16357;52.188;7.838;2023-03-15T05:03:17;8.43;;;4.20;;
29370;SDS011;16357;52.188;7.838;2023-03-15T05:05:44;6.60;;;3.45;;
29370;SDS011;16357;52.188;7.838;2023-03-15T05:08:10;4.93;;;3.50;;
29370;SDS011;16357;52.188;7.838;2023-03-15T05:10:37;5.20;;;3.33;;
29370;SDS011;16357;52.188;7.838;2023-03-15T05:13:04;6.43;;;3.80;;
29370;SDS011;16357;52.188;7.838;2023-03-15T05:15:30;7.80;;;3.97;;
29370;SDS011;16357;52.188;7.838;2023-03-15T05:17:56;5.45;;;3.58;;
29370;SDS011;16357;52.188;7.838;2023-03-15T05:20:23;8.63;;;4.10;;
29370;SDS011;16357;52.188;7.838;2023-03-15T05:22:51;9.20;;;4.30;;
29370;SDS011;16357;52.188;7.838;2023-03-15T05:25:20;8.93;;;4.25;;
29370;SDS011;16357;52.188;7.838;2023-03-15T05:27:47;11.25;;;4.43;;
29370;SDS011;16357;52.188;7.838;2023-03-15T05:30:13;5.97;;;4.03;;
29370;SDS011;16357;52.188;7.838;2023-03-15T05:32:41;7.03;;;3.97;;
29370;SDS011;16357;52.188;7.838;2023-03-15T05:35:10;7.95;;;3.95;;
29370;SDS011;16357;52.188;7.838;2023-03-15T05:37:37;10.23;;;3.80;;
29370;SDS011;16357;52.188;7.838;2023-03-15T05:40:03;6.35;;;4.18;;
29370;SDS011;16357;52.188;7.838;2023-03-15T05:42:33;8.43;;;4.30;;
29370;SDS011;16357;52.188;7.838;2023-03-15T05:44:59;5.10;;;3.40;;
29370;SDS011;16357;52.188;7.838;2023-03-15T05:47:26;6.35;;;3.97;;
29370;SDS011;16357;52.188;7.838;2023-03-15T05:49:52;6.57;;;4.25;;
29370;SDS011;16357;52.188;7.838;2023-03-15T05:52:19;6.13;;;4.13;;
29370;SDS011;16357;52.188;7.838;2023-03-15T05:54:45;9.32;;;4.35;;
29370;SDS011;16357;52.188;7.838;2023-03-15T05:57:12;5.72;;;3.63;;
29370;SDS011;16357;52.188;7.838;2023-03-15T05:59:38;8.63;;;4.18;;
29370;SDS011;16357;52.188;7.838;2023-03-15T06:02:05;6.90;;;3.80;;
29370;SDS011;16357;52.188;7.838;2023-03-15T06:04:31;5.68;;;4.13;;
29370;SDS011;16357;52.188;7.838;2023-03-15T06:06:58;12.23;;;4.60;;
29370;SDS011;16357;52.188;7.838;2023-03-15T06:09:24;10.15;;;4.75;;
29370;SDS011;16357;52.188;7.838;2023-03-15T06:11:51;10.90;;;4.80;;
29370;SDS011;16357;52.188;7.838;2023-03-15T06:14:18;6.30;;;4.40;;
29370;SDS011;16357;52.188;7.838;2023-03-15T06:16:45;10.75;;;4.05;;
29370;SDS011;16357;52.188;7.838;2023-03-15T06:19:11;6.57;;;4.78;;
29370;SDS011;16357;52.188;7.838;2023-03-15T06:21:38;7.88;;;4.55;;
29370;SDS011;16357;52.188;7.838;2023-03-15T06:24:04;8.75;;;4.80;;
29370;SDS011;16357;52.188;7.838;2023-03-15T06:26:31;7.70;;;5.13;;
29370;SDS011;16357;52.188;7.838;2023-03-15T06:28:58;7.13;;;4.40;;
29370;SDS011;16357;52.188;7.838;2023-03-15T06:31:24;7.70;;;4.95;;
29370;SDS011;16357;52.188;7.838;2023-03-15T06:33:50;8.93;;;5.28;;
29370;SDS011;16357;52.188;7.838;2023-03-15T06:36:17;7.82;;;5.15;;
29370;SDS011;16357;52.188;7.838;2023-03-15T06:38:43;10.18;;;5.20;;
29370;SDS011;16357;52.188;7.838;2023-03-15T06:41:10;8.70;;;5.45;;
29370;SDS011;16357;52.188;7.838;2023-03-15T06:43:37;7.20;;;4.97;;
29370;SDS011;16357;52.188;7.838;2023-03-15T06:46:04;8.13;;;5.70;;
29370;SDS011;16357;52.188;7.838;2023-03-15T06:48:30;10.02;;;5.47;;
29370;SDS011;16357;52.188;7.838;2023-03-15T06:50:57;9.05;;;5.22;;
29370;SDS011;16357;52.188;7.838;2023-03-15T06:53:23;12.10;;;6.22;;
29370;SDS011;16357;52.188;7.838;2023-03-15T06:55:50;10.52;;;6.03;;
29370;SDS011;16357;52.188;7.838;2023-03-15T06:58:17;10.48;;;5.70;;
29370;SDS011;16357;52.188;7.838;2023-03-15T07:00:43;9.07;;;5.68;;
29370;SDS011;16357;52.188;7.838;2023-03-15T07:03:10;8.75;;;5.78;;
29370;SDS011;16357;52.188;7.838;2023-03-15T07:05:36;9.25;;;6.05;;
29370;SDS011;16357;52.188;7.838;2023-03-15T07:08:03;11.63;;;6.05;;
29370;SDS011;16357;52.188;7.838;2023-03-15T07:10:29;10.20;;;5.57;;
29370;SDS011;16357;52.188;7.838;2023-03-15T07:12:56;10.82;;;5.75;;
29370;SDS011;16357;52.188;7.838;2023-03-15T07:15:22;10.00;;;5.68;;
29370;SDS011;16357;52.188;7.838;2023-03-15T07:17:49;12.07;;;5.50;;
29370;SDS011;16357;52.188;7.838;2023-03-15T07:20:15;10.40;;;5.70;;
29370;SDS011;16357;52.188;7.838;2023-03-15T07:22:42;12.30;;;4.93;;
29370;SDS011;16357;52.188;7.838;2023-03-15T07:25:10;9.85;;;5.70;;
29370;SDS011;16357;52.188;7.838;2023-03-15T07:27:37;8.43;;;4.82;;
29370;SDS011;16357;52.188;7.838;2023-03-15T07:30:03;7.90;;;5.07;;
29370;SDS011;16357;52.188;7.838;2023-03-15T07:32:30;11.50;;;5.78;;
29370;SDS011;16357;52.188;7.838;2023-03-15T07:34:57;8.10;;;5.28;;
29370;SDS011;16357;52.188;7.838;2023-03-15T07:37:26;10.32;;;5.20;;
29370;SDS011;16357;52.188;7.838;2023-03-15T07:39:54;10.10;;;5.70;;
29370;SDS011;16357;52.188;7.838;2023-03-15T07:42:20;9.32;;;5.28;;
29370;SDS011;16357;52.188;7.838;2023-03-15T07:44:47;9.98;;;5.93;;
29370;SDS011;16357;52.188;7.838;2023-03-15T07:47:13;12.23;;;5.90;;
29370;SDS011;16357;52.188;7.838;2023-03-15T07:49:40;7.05;;;4.82;;
29370;SDS011;16357;52.188;7.838;2023-03-15T07:52:06;8.52;;;4.97;;
29370;SDS011;16357;52.188;7.838;2023-03-15T07:54:33;10.10;;;5.63;;
29370;SDS011;16357;52.188;7.838;2023-03-15T07:57:00;11.93;;;5.40;;
29370;SDS011;16357;52.188;7.838;2023-03-15T07:59:26;13.38;;;5.45;;
29370;SDS011;16357;52.188;7.838;2023-03-15T08:01:53;14.13;;;5.55;;
29370;SDS011;16357;52.188;7.838;2023-03-15T08:04:19;8.65;;;4.75;;
29370;SDS011;16357;52.188;7.838;2023-03-15T08:06:46;10.10;;;4.90;;
29370;SDS011;16357;52.188;7.838;2023-03-15T08:09:12;8.95;;;4.70;;
29370;SDS011;16357;52.188;7.838;2023-03-15T08:11:39;10.45;;;5.32;;
29370;SDS011;16357;52.188;7.838;2023-03-15T08:14:07;11.68;;;5.18;;
29370;SDS011;16357;52.188;7.838;2023-03-15T08:16:34;10.63;;;4.35;;
29370;SDS011;16357;52.188;7.838;2023-03-15T08:19:00;8.63;;;4.38;;
29370;SDS011;16357;52.188;7.838;2023-03-15T08:21:27;11.23;;;4.55;;
29370;SDS011;16357;52.188;7.838;2023-03-15T08:23:53;8.05;;;4.47;;
29370;SDS011;16357;52.188;7.838;2023-03-15T08:26:19;9.68;;;4.88;;
29370;SDS011;16357;52.188;7.838;2023-03-15T08:28:46;11.48;;;4.65;;
29370;SDS011;16357;52.188;7.838;2023-03-15T08:31:12;13.70;;;4.25;;
29370;SDS011;16357;52.188;7.838;2023-03-15T08:33:39;9.20;;;4.07;;
29370;SDS011;16357;52.188;7.838;2023-03-15T08:36:06;7.22;;;3.78;;
29370;SDS011;16357;52.188;7.838;2023-03-15T08:38:32;8.13;;;3.63;;
29370;SDS011;16357;52.188;7.838;2023-03-15T08:40:59;8.73;;;4.50;;
29370;SDS011;16357;52.188;7.838;2023-03-15T08:43:25;10.65;;;3.78;;
29370;SDS011;16357;52.188;7.838;2023-03-15T08:45:52;11.07;;;4.32;;
29370;SDS011;16357;52.188;7.838;2023-03-15T08:48:26;9.68;;;3.90;;
29370;SDS011;16357;52.188;7.838;2023-03-15T08:50:53;9.25;;;3.95;;
29370;SDS011;16357;52.188;7.838;2023-03-15T08:53:19;10.98;;;4.28;;
29370;SDS011;16357;52.188;7.838;2023-03-15T08:55:46;9.55;;;3.92;;
29370;SDS011;16357;52.188;7.838;2023-03-15T08:58:13;10.63;;;4.28;;
29370;SDS011;16357;52.188;7.838;2023-03-15T09:00:40;8.32;;;3.80;;
29370;SDS011;16357;52.188;7.838;2023-03-15T09:03:06;6.40;;;3.42;;
29370;SDS011;16357;52.188;7.838;2023-03-15T09:05:33;12.38;;;4.22;;
29370;SDS011;16357;52.188;7.838;2023-03-15T09:08:01;7.32;;;3.42;;
29370;SDS011;16357;52.188;7.838;2023-03-15T09:10:27;8.25;;;3.50;;
29370;SDS011;16357;52.188;7.838;2023-03-15T09:12:54;10.90;;;4.35;;
29370;SDS011;16357;52.188;7.838;2023-03-15T09:15:21;8.48;;;3.72;;
29370;SDS011;16357;52.188;7.838;2023-03-15T09:17:50;8.35;;;3.35;;
29370;SDS011;16357;52.188;7.838;2023-03-15T09:20:17;10.45;;;3.33;;
29370;SDS011;16357;52.188;7.838;2023-03-15T09:22:53;8.23;;;3.60;;
29370;SDS011;16357;52.188;7.838;2023-03-15T09:25:23;5.78;;;2.85;;
29370;SDS011;16357;52.188;7.838;2023-03-15T09:27:50;10.18;;;3.58;;
29370;SDS011;16357;52.188;7.838;2023-03-15T09:30:17;13.43;;;2.90;;
29370;SDS011;16357;52.188;7.838;2023-03-15T09:32:45;7.10;;;2.83;;
29370;SDS011;16357;52.188;7.838;2023-03-15T09:35:15;7.53;;;3.10;;
29370;SDS011;16357;52.188;7.838;2023-03-15T09:37:44;7.70;;;2.85;;
29370;SDS011;16357;52.188;7.838;2023-03-15T09:40:12;7.35;;;2.65;;
29370;SDS011;16357;52.188;7.838;2023-03-15T09:45:30;9.50;;;2.50;;
29370;SDS011;16357;52.188;7.838;2023-03-15T09:48:08;8.88;;;2.35;;
29370;SDS011;16357;52.188;7.838;2023-03-15T09:50:44;7.10;;;2.70;;
29370;SDS011;16357;52.188;7.838;2023-03-15T09:53:26;7.80;;;2.83;;
29370;SDS011;16357;52.188;7.838;2023-03-15T09:55:57;7.63;;;2.40;;
29370;SDS011;16357;52.188;7.838;2023-03-15T09:58:24;8.75;;;2.40;;
29370;SDS011;16357;52.188;7.838;2023-03-15T10:00:59;6.72;;;2.08;;
29370;SDS011;16357;52.188;7.838;2023-03-15T10:08:54;5.35;;;2.10;;
29370;SDS011;16357;52.188;7.838;2023-03-15T10:11:33;5.35;;;2.17;;
29370;SDS011;16357;52.188;7.838;2023-03-15T10:14:26;11.35;;;2.55;;
29370;SDS011;16357;52.188;7.838;2023-03-15T10:17:14;6.25;;;2.20;;
29370;SDS011;16357;52.188;7.838;2023-03-15T10:22:18;6.85;;;2.30;;
29370;SDS011;16357;52.188;7.838;2023-03-15T10:27:36;5.88;;;2.15;;
29370;SDS011;16357;52.188;7.838;2023-03-15T10:30:23;8.43;;;2.38;;
29370;SDS011;16357;52.188;7.838;2023-03-15T10:32:53;9.55;;;2.50;;
29370;SDS011;16357;52.188;7.838;2023-03-15T10:35:24;8.60;;;2.42;;
29370;SDS011;16357;52.188;7.838;2023-03-15T10:37:50;7.70;;;2.20;;
29370;SDS011;16357;52.188;7.838;2023-03-15T10:45:37;5.13;;;1.95;;
29370;SDS011;16357;52.188;7.838;2023-03-15T10:48:04;6.07;;;2.08;;
29370;SDS011;16357;52.188;7.838;2023-03-15T10:50:32;11.95;;;2.08;;
29370;SDS011;16357;52.188;7.838;2023-03-15T10:53:00;4.57;;;1.80;;
29370;SDS011;16357;52.188;7.838;2023-03-15T10:55:41;8.75;;;1.98;;
29370;SDS011;16357;52.188;7.838;2023-03-15T10:58:28;6.82;;;2.28;;
29370;SDS011;16357;52.188;7.838;2023-03-15T11:01:05;9.20;;;2.05;;
29370;SDS011;16357;52.188;7.838;2023-03-15T11:03:35;6.55;;;2.22;;
29370;SDS011;16357;52.188;7.838;2023-03-15T11:06:02;6.85;;;1.80;;
29370;SDS011;16357;52.188;7.838;2023-03-15T11:08:44;7.22;;;2.10;;
29370;SDS011;16357;52.188;7.838;2023-03-15T11:11:11;6.75;;;2.22;;
29370;SDS011;16357;52.188;7.838;2023-03-15T11:13:38;12.77;;;3.78;;
29370;SDS011;16357;52.188;7.838;2023-03-15T11:18:56;6.78;;;1.63;;
29370;SDS011;16357;52.188;7.838;2023-03-15T11:21:30;5.57;;;2.17;;
29370;SDS011;16357;52.188;7.838;2023-03-15T11:23:59;4.20;;;1.55;;
29370;SDS011;16357;52.188;7.838;2023-03-15T11:26:28;5.25;;;2.08;;
29370;SDS011;16357;52.188;7.838;2023-03-15T11:29:02;5.32;;;1.92;;
29370;SDS011;16357;52.188;7.838;2023-03-15T11:31:31;4.18;;;1.85;;
29370;SDS011;16357;52.188;7.838;2023-03-15T11:33:59;5.85;;;1.80;;
29370;SDS011;16357;52.188;7.838;2023-03-15T11:36:31;8.48;;;2.03;;
29370;SDS011;16357;52.188;7.838;2023-03-15T11:39:01;4.13;;;1.67;;
29370;SDS011;16357;52.188;7.838;2023-03-15T11:41:35;7.55;;;1.52;;
29370;SDS011;16357;52.188;7.838;2023-03-15T11:44:21;6.05;;;1.42;;
29370;SDS011;16357;52.188;7.838;2023-03-15T11:46:58;4.90;;;1.35;;
29370;SDS011;16357;52.188;7.838;2023-03-15T11:49:32;4.80;;;1.25;;
29370;SDS011;16357;52.188;7.838;2023-03-15T11:52:02;5.07;;;1.65;;
29370;SDS011;16357;52.188;7.838;2023-03-15T11:54:30;5.70;;;1.45;;
29370;SDS011;16357;52.188;7.838;2023-03-15T11:57:04;4.55;;;1.50;;
29370;SDS011;16357;52.188;7.838;2023-03-15T11:59:34;4.47;;;1.42;;
29370;SDS011;16357;52.188;7.838;2023-03-15T12:04:49;4.50;;;1.33;;
29370;SDS011;16357;52.188;7.838;2023-03-15T12:20:07;5.88;;;1.30;;
29370;SDS011;16357;52.188;7.838;2023-03-15T12:22:41;2.28;;;1.02;;
29370;SDS011;16357;52.188;7.838;2023-03-15T12:25:21;3.78;;;1.13;;
29370;SDS011;16357;52.188;7.838;2023-03-15T12:27:56;4.22;;;1.13;;
29370;SDS011;16357;52.188;7.838;2023-03-15T12:30:29;4.82;;;1.25;;
29370;SDS011;16357;52.188;7.838;2023-03-15T12:32:58;3.08;;;1.20;;
29370;SDS011;16357;52.188;7.838;2023-03-15T12:35:28;5.45;;;1.30;;
29370;SDS011;16357;52.188;7.838;2023-03-15T12:38:03;3.60;;;1.13;;
29370;SDS011;16357;52.188;7.838;2023-03-15T12:40:39;4.47;;;1.55;;
29370;SDS011;16357;52.188;7.838;2023-03-15T12:51:41;5.18;;;1.10;;
29370;SDS011;16357;52.188;7.838;2023-03-15T12:54:19;3.35;;;1.20;;
29370;SDS011;16357;52.188;7.838;2023-03-15T12:56:53;4.30;;;1.10;;
29370;SDS011;16357;52.188;7.838;2023-03-15T13:02:16;2.85;;;1.02;;
29370;SDS011;16357;52.188;7.838;2023-03-15T13:05:21;4.88;;;1.10;;
29370;SDS011;16357;52.188;7.838;2023-03-15T13:20:19;3.72;;;1.15;;
29370;SDS011;16357;52.188;7.838;2023-03-15T13:28:45;5.13;;;1.77;;
29370;SDS011;16357;52.188;7.838;2023-03-15T13:31:21;3.10;;;1.35;;
29370;SDS011;16357;52.188;7.838;2023-03-15T13:33:50;2.72;;;1.20;;
29370;SDS011;16357;52.188;7.838;2023-03-15T13:36:38;4.32;;;1.27;;
29370;SDS011;16357;52.188;7.838;2023-03-15T13:41:55;4.78;;;1.40;;
29370;SDS011;16357;52.188;7.838;2023-03-15T13:44:23;3.45;;;1.20;;
29370;SDS011;16357;52.188;7.838;2023-03-15T13:46:51;7.18;;;1.40;;
29370;SDS011;16357;52.188;7.838;2023-03-15T13:49:19;4.22;;;1.00;;
29370;SDS011;16357;52.188;7.838;2023-03-15T13:51:46;4.88;;;1.10;;
29370;SDS011;16357;52.188;7.838;2023-03-15T13:54:15;3.15;;;0.98;;
29370;SDS011;16357;52.188;7.838;2023-03-15T13:57:07;9.18;;;1.35;;
29370;SDS011;16357;52.188;7.838;2023-03-15T13:59:43;6.65;;;1.00;;
29370;SDS011;16357;52.188;7.838;2023-03-15T14:02:15;3.42;;;1.13;;
29370;SDS011;16357;52.188;7.838;2023-03-15T14:04:46;4.47;;;1.17;;
29370;SDS011;16357;52.188;7.838;2023-03-15T14:07:44;5.00;;;1.05;;
29370;SDS011;16357;52.188;7.838;2023-03-15T14:12:50;6.20;;;1.33;;
29370;SDS011;16357;52.188;7.838;2023-03-15T14:17:57;3.15;;;1.20;;
29370;SDS011;16357;52.188;7.838;2023-03-15T14:20:33;3.63;;;1.10;;
29370;SDS011;16357;52.188;7.838;2023-03-15T14:23:04;3.22;;;0.95;;
29370;SDS011;16357;52.188;7.838;2023-03-15T14:25:35;4.65;;;1.20;;
29370;SDS011;16357;52.188;7.838;2023-03-15T14:28:02;2.83;;;1.27;;
29370;SDS011;16357;52.188;7.838;2023-03-15T14:30:31;1.75;;;0.98;;
29370;SDS011;16357;52.188;7.838;2023-03-15T14:33:01;3.33;;;1.20;;
29370;SDS011;16357;52.188;7.838;2023-03-15T14:38:06;2.70;;;1.30;;
29370;SDS011;16357;52.188;7.838;2023-03-15T14:40:52;8.25;;;0.95;;
29370;SDS011;16357;52.188;7.838;2023-03-15T14:43:19;2.15;;;1.08;;
29370;SDS011;16357;52.188;7.838;2023-03-15T14:45:46;3.90;;;1.27;;
29370;SDS011;16357;52.188;7.838;2023-03-15T14:50:54;2.25;;;1.00;;
29370;SDS011;16357;52.188;7.838;2023-03-15T14:53:22;3.72;;;1.15;;
29370;SDS011;16357;52.188;7.838;2023-03-15T14:55:51;1.17;;;0.80;;
29370;SDS011;16357;52.188;7.838;2023-03-15T14:58:18;3.90;;;1.00;;
29370;SDS011;16357;52.188;7.838;2023-03-15T15:00:50;1.73;;;0.80;;
29370;SDS011;16357;52.188;7.838;2023-03-15T15:03:22;1.95;;;1.00;;
29370;SDS011;16357;52.188;7.838;2023-03-15T15:05:53;1.95;;;1.00;;
29370;SDS011;16357;52.188;7.838;2023-03-15T15:08:20;1.98;;;0.85;;
29370;SDS011;16357;52.188;7.838;2023-03-15T15:10:51;4.00;;;1.35;;
29370;SDS011;16357;52.188;7.838;2023-03-15T15:13:27;2.63;;;1.08;;
29370;SDS011;16357;52.188;7.838;2023-03-15T15:15:55;2.40;;;0.90;;
29370;SDS011;16357;52.188;7.838;2023-03-15T15:18:23;1.70;;;0.93;;
29370;SDS011;16357;52.188;7.838;2023-03-15T15:20:51;3.50;;;1.20;;
29370;SDS011;16357;52.188;7.838;2023-03-15T15:23:25;3.60;;;1.23;;
29370;SDS011;16357;52.188;7.838;2023-03-15T15:25:57;4.75;;;2.17;;
29370;SDS011;16357;52.188;7.838;2023-03-15T15:28:26;3.40;;;1.40;;
29370;SDS011;16357;52.188;7.838;2023-03-15T15:31:05;3.63;;;1.50;;
29370;SDS011;16357;52.188;7.838;2023-03-15T15:33:32;4.18;;;2.45;;
29370;SDS011;16357;52.188;7.838;2023-03-15T15:35:59;6.20;;;4.22;;
29370;SDS011;16357;52.188;7.838;2023-03-15T15:38:28;4.75;;;2.67;;
29370;SDS011;16357;52.188;7.838;2023-03-15T15:40:58;3.05;;;1.48;;
29370;SDS011;16357;52.188;7.838;2023-03-15T15:43:24;2.88;;;1.50;;
29370;SDS011;16357;52.188;7.838;2023-03-15T15:45:51;3.22;;;1.10;;
29370;SDS011;16357;52.188;7.838;2023-03-15T15:48:17;3.17;;;1.20;;
29370;SDS011;16357;52.188;7.838;2023-03-15T15:50:43;5.88;;;1.40;;
29370;SDS011;16357;52.188;7.838;2023-03-15T15:53:10;2.20;;;1.20;;
29370;SDS011;16357;52.188;7.838;2023-03-15T15:55:42;4.00;;;1.08;;
29370;SDS011;16357;52.188;7.838;2023-03-15T15:58:09;2.17;;;1.10;;
29370;SDS011;16357;52.188;7.838;2023-03-15T16:00:37;5.55;;;1.27;;
29370;SDS011;16357;52.188;7.838;2023-03-15T16:03:06;4.35;;;1.08;;
29370;SDS011;16357;52.188;7.838;2023-03-15T16:05:39;3.58;;;1.30;;
29370;SDS011;16357;52.188;7.838;2023-03-15T16:08:08;4.93;;;1.20;;
29370;SDS011;16357;52.188;7.838;2023-03-15T16:10:45;3.38;;;1.30;;
29370;SDS011;16357;52.188;7.838;2023-03-15T16:13:11;6.53;;;1.50;;
29370;SDS011;16357;52.188;7.838;2023-03-15T16:15:38;3.80;;;1.10;;
29370;SDS011;16357;52.188;7.838;2023-03-15T16:18:07;2.50;;;1.27;;
29370;SDS011;16357;52.188;7.838;2023-03-15T16:20:38;3.35;;;1.45;;